Latest Coastal Weather Observations for Coconut Island

IDQ60701

Issued at 10:45 pm EST Thursday 17 April 2014 (issued every 10 minutes, with the page automatically refreshed every 10 minutes)

About coastal observations | Map of coastal stations | Coastal observations for QLD | Marine services | Other Formats
Station Details ID: 027054 Name: COCONUT ISLAND Lat: -10.05 Lon: 143.07 Height: 3.5 m
Data from the previous 72 hours. | See also: Recent months at Coconut Island
Date/Time
EST
Temp

°C
Wind Pressure Rain
since 9am
mm
Weather Cloud Vis
km
Sea
Height
m
Swell
Dir
 
Speed
knots
Gust
knots
hPa Trend Height
m
Period
s
Dir
17/10:30pm 27.4 SE 5 12 1010.4 - 0.0 - - - - - - -
17/10:00pm 27.5 SE 6 13 1010.3 - 0.0 - - - - - - -
17/09:30pm 27.5 SE 5 12 1010.4 - 0.0 - - - - - - -
17/09:00pm 27.4 SE 5 10 1010.6 - 0.0 - - - - - - -
17/08:30pm 27.4 SE 5 12 1010.4 - 0.0 - - - - - - -
17/08:00pm 27.4 SE 5 13 1010.1 - 0.0 - - - - - - -
17/07:30pm 27.5 SE 5 11 1009.7 - 0.0 - - - - - - -
17/07:00pm 27.6 SSE 4 10 1008.9 - 0.0 - - - - - - -
17/06:30pm 27.7 SSE 4 9 1008.8 - 0.0 - - - - - - -
17/06:00pm 28.1 SSE 3 7 1008.1 - 0.0 - - - - - - -
17/05:30pm 28.6 SSE 3 7 1008.1 - 0.0 - - - - - - -
17/05:00pm 28.9 SE 3 8 1007.6 - 0.0 - - - - - - -
17/04:30pm 29.4 SE 4 9 1007.5 - 0.0 - - - - - - -
17/04:00pm 29.2 SE 3 8 1007.8 - 0.0 - - - - - - -
17/03:30pm 29.2 SE 4 9 1008.1 - 0.0 - - - - - - -
17/03:00pm 29.2 SE 4 9 1008.2 - 0.0 - - - - - - -
17/02:30pm 30.4 SE 4 9 1008.3 - 0.0 - - - - - - -
17/02:00pm 30.5 SE 3 11 1008.6 - 0.0 - - - - - - -
17/01:30pm 31.5 SSE 3 7 1009.1 - 0.0 - - - - - - -
17/01:00pm 31.5 SE 5 10 1009.2 - 0.0 - - - - - - -
17/12:30pm 31.5 ESE 6 12 1009.8 - 0.0 - - - - - - -
17/12:00pm 31.4 ESE 6 11 1010.0 - 0.0 - - - - - - -
17/11:30am 32.1 SE 5 11 1010.4 - 0.0 - - - - - - -
17/11:00am 31.7 ESE 6 12 1010.6 - 0.0 - - - - - - -
17/10:30am 31.5 ESE 7 13 1011.0 - 0.0 - - - - - - -
17/10:00am 31.2 ESE 8 13 1011.0 - 0.0 - - - - - - -
17/09:30am 31.2 ESE 6 11 1011.2 - 0.0 - - - - - - -
17/09:00am 30.2 ESE 6 11 1010.9 - 0.0 - - - - - - -
17/08:30am 29.0 ESE 6 11 1010.8 - 0.0 - - - - - - -
17/08:00am 27.9 SE 5 11 1010.5 - 0.0 - - - - - - -
17/07:30am 27.6 ESE 6 10 1010.3 - 0.0 - - - - - - -
17/07:00am 27.2 ESE 6 11 1009.7 - 0.0 - - - - - - -
17/06:30am 26.9 SE 6 11 1009.3 - 0.0 - - - - - - -
17/06:00am 26.7 SE 4 8 1008.7 - 0.0 - - - - - - -
17/05:30am 26.9 SSE 2 5 1008.6 - 0.0 - - - - - - -
17/05:00am 26.9 ESE 5 10 1008.6 - 0.0 - - - - - - -
17/04:30am 27.0 ESE 6 10 1008.7 - 0.0 - - - - - - -
17/04:00am 27.1 ESE 6 10 1008.5 - 0.0 - - - - - - -
17/03:30am 27.1 E 6 9 1008.6 - 0.0 - - - - - - -
17/03:00am 27.1 E 5 9 1008.7 - 0.0 - - - - - - -
17/02:30am 27.0 SE 4 10 1009.0 - 0.0 - - - - - - -
17/02:00am 27.0 SE 4 9 1008.7 - 0.0 - - - - - - -
17/01:30am 27.0 SE 4 9 1008.7 - 0.0 - - - - - - -
17/01:00am 27.0 SSE 3 7 1008.9 - 0.0 - - - - - - -
17/12:30am 27.1 SSE 2 6 1009.5 - 0.0 - - - - - - -
17/12:00am 27.3 SSE 2 7 1009.8 - 0.0 - - - - - - -
 
Date/Time
EST
Temp

°C
Wind Pressure Rain
since 9am
mm
Weather Cloud Vis
km
Sea
Height
m
Swell
Dir
 
Speed
knots
Gust
knots
hPa Trend Height
m
Period
s
Dir
16/11:30pm 27.2 SSE 2 5 1010.1 - 0.0 - - - - - - -
16/11:00pm 27.2 SSE 2 4 1010.0 - 0.0 - - - - - - -
16/10:30pm 27.3 SSE 2 5 1010.2 - 0.0 - - - - - - -
16/10:00pm 27.4 SSE 1 5 1010.2 - 0.0 - - - - - - -
16/09:30pm 27.3 SSE 2 4 1010.2 - 0.0 - - - - - - -
16/09:00pm 27.4 SSE 2 4 1009.7 - 0.0 - - - - - - -
16/08:30pm 27.1 SE 2 5 1009.6 - 0.0 - - - - - - -
16/08:00pm 26.9 SE 2 5 1009.0 - 0.0 - - - - - - -
16/07:30pm 26.9 SSE 2 6 1008.8 - 0.0 - - - - - - -
16/07:00pm 27.1 ESE 2 6 1008.3 - 0.0 - - - - - - -
16/06:30pm 27.5 SE 2 5 1008.1 - 0.0 - - - - - - -
16/06:00pm 28.4 SE 2 7 1007.7 - 0.0 - - - - - - -
16/05:30pm 29.5 ESE 3 6 1007.5 - 0.0 - - - - - - -
16/05:00pm 30.3 ESE 2 5 1007.1 - 0.0 - - - - - - -
16/04:30pm 30.5 SE 2 7 1007.2 - 0.0 - - - - - - -
16/04:00pm 30.8 ESE 3 6 1007.0 - 0.0 - - - - - - -
16/03:30pm 31.3 SE 2 5 1007.3 - 0.0 - - - - - - -
16/03:00pm 32.1 SE 2 4 1007.4 - 0.0 - - - - - - -
16/02:30pm 32.2 SSE 2 5 1007.9 - 0.0 - - - - - - -
16/02:00pm 32.2 ESE 2 5 1008.0 - 0.0 - - - - - - -
16/01:30pm 32.1 ESE 3 5 1008.7 - 0.0 - - - - - - -
16/01:00pm 31.4 ESE 3 6 1008.8 - 0.0 - - - - - - -
16/12:30pm 32.0 SE 3 6 1009.3 - 0.0 - - - - - - -
16/12:00pm 31.7 ESE 4 6 1009.8 - 0.0 - - - - - - -
16/11:30am 31.6 ESE 4 7 1010.3 - 0.0 - - - - - - -
16/11:00am 31.5 ESE 4 6 1010.6 - 0.0 - - - - - - -
16/10:30am 31.7 ESE 4 7 1011.0 - 0.0 - - - - - - -
16/10:00am 31.1 ESE 3 7 1011.0 - 0.0 - - - - - - -
16/09:30am 30.9 ESE 4 7 1011.1 - 0.0 - - - - - - -
16/09:00am 30.4 ESE 3 6 1010.6 - 2.8 - - - - - - -
16/08:30am 29.2 E 2 5 1010.4 - 2.8 - - - - - - -
16/08:00am 28.3 E 3 6 1010.1 - 2.8 - - - - - - -
16/07:30am 26.7 E 2 4 1009.9 - 2.8 - - - - - - -
16/07:00am 25.4 E 2 4 1009.8 - 2.8 - - - - - - -
16/06:30am 25.1 E 2 3 1009.7 - 2.8 - - - - - - -
16/06:00am 25.0 E 2 3 1009.5 - 2.8 - - - - - - -
16/05:30am 25.1 ESE 1 2 1009.3 - 2.8 - - - - - - -
16/05:00am 24.9 E 2 3 1009.0 - 2.8 - - - - - - -
16/04:30am 25.1 E 2 3 1009.1 - 2.8 - - - - - - -
16/04:00am 25.1 ENE 2 3 1008.8 - 2.8 - - - - - - -
16/03:30am 25.5 ENE 4 5 1008.7 - 2.8 - - - - - - -
16/03:00am 25.5 E 3 5 1008.6 - 2.8 - - - - - - -
16/02:30am 25.3 E 3 4 1008.9 - 2.8 - - - - - - -
16/02:00am 25.4 ENE 3 5 1009.2 - 2.8 - - - - - - -
16/01:30am 25.4 E 2 3 1009.8 - 2.8 - - - - - - -
16/01:00am 25.6 E 2 4 1010.3 - 2.8 - - - - - - -
16/12:30am 25.5 ENE 3 5 1010.8 - 2.8 - - - - - - -
16/12:00am 25.5 ENE 3 4 1010.8 - 2.8 - - - - - - -
 
Date/Time
EST
Temp

°C
Wind Pressure Rain
since 9am
mm
Weather Cloud Vis
km
Sea
Height
m
Swell
Dir
 
Speed
knots
Gust
knots
hPa Trend Height
m
Period
s
Dir
15/11:30pm 25.5 E 3 5 1010.9 - 2.8 - - - - - - -
15/11:00pm 25.5 E 3 5 1011.1 - 2.8 - - - - - - -
15/10:30pm 25.5 E 3 4 1011.4 - 2.8 - - - - - - -
15/10:00pm 25.3 E 3 4 1011.1 - 2.8 - - - - - - -
15/09:30pm 25.2 E 1 2 1011.1 - 2.8 - - - - - - -
15/09:00pm 25.3 CALM 0 0 1010.8 - 2.8 - - - - - - -
15/08:30pm 25.2 CALM 0 0 1010.6 - 2.8 - - - - - - -
15/08:00pm 25.1 CALM 0 0 1010.0 - 2.8 - - - - - - -
15/07:30pm 25.2 CALM 0 0 1009.6 - 2.8 - - - - - - -
15/07:00pm 25.4 CALM 0 0 1009.0 - 2.8 - - - - - - -
15/06:30pm 26.1 CALM 0 0 1008.5 - 2.8 - - - - - - -
15/06:00pm 27.1 CALM 0 0 1008.2 - 2.8 - - - - - - -
15/05:30pm 27.9 CALM 0 0 1007.9 - 2.8 - - - - - - -
15/05:00pm 28.5 CALM 0 0 1007.4 - 2.8 - - - - - - -
15/04:30pm 28.1 S 1 2 1007.3 - 2.8 - - - - - - -
15/04:00pm 28.1 WSW 2 5 1007.2 - 2.8 - - - - - - -
15/03:30pm 28.2 WSW 2 4 1007.4 - 2.8 - - - - - - -
15/03:00pm 29.0 W 3 6 1007.7 - 2.8 - - - - - - -
15/02:30pm 29.5 W 5 7 1008.5 - 2.8 - - - - - - -
15/02:00pm 28.9 WSW 7 12 1009.2 - 2.8 - - - - - - -
15/01:30pm 28.5 W 6 10 1010.2 - 2.8 - - - - - - -
15/01:00pm 29.9 WNW 6 9 1010.4 - 2.8 - - - - - - -
15/12:30pm 28.4 WNW 4 7 1011.1 - 2.8 - - - - - - -
15/12:00pm 27.9 WNW 5 7 1011.5 - 2.8 - - - - - - -
15/11:30am 27.8 NW 3 4 1012.2 - 2.8 - - - - - - -
15/11:00am 27.5 N 3 4 1012.4 - 2.8 - - - - - - -
15/10:30am 26.6 N 2 3 1012.8 - 2.8 - - - - - - -
15/10:00am 25.8 NNE 2 3 1012.3 - 2.8 - - - - - - -
15/09:30am 24.8 NE 3 4 1012.2 - 2.6 - - - - - - -
15/09:00am 24.4 ENE 3 4 1012.0 - 27.0 Rain - - - - - -
15/08:30am 24.6 ENE 6 9 1012.2 - 14.2 - - - - - - -
15/08:00am 25.1 NNE 6 8 1011.6 - 6.8 - - - - - - -
15/07:30am 25.1 NNW 9 10 1011.1 - 5.6 - - - - - - -
15/07:00am 25.3 NNW 8 10 1010.8 - 5.2 - - - - - - -
15/06:30am 25.4 NNW 8 10 1010.6 - 4.6 - - - - - - -
15/06:00am 25.8 NW 3 6 1009.8 - 4.0 Rain - - - - - -
15/05:30am 25.9 W 2 3 1009.6 - 3.4 - - - - - - -
15/05:00am 25.5 W 2 3 1009.3 - 3.4 - - - - - - -
15/04:30am 25.4 W 2 3 1009.3 - 3.4 - - - - - - -
15/04:00am 25.4 W 3 4 1008.9 - 3.4 - - - - - - -
15/03:30am 25.3 WSW 2 4 1009.2 - 3.4 - - - - - - -
15/03:00am 25.5 CALM 0 0 1009.0 - 3.2 Rain - - - - - -
15/02:30am 25.7 CALM 0 0 1009.3 - 2.6 - - - - - - -
15/02:00am 26.5 SSE 1 2 1009.3 - 0.2 - - - - - - -
15/01:30am 27.2 S 1 4 1009.3 - 0.2 - - - - - - -
15/01:00am 27.5 WNW 2 4 1009.4 - 0.2 - - - - - - -
15/12:30am 27.5 W 3 4 1009.7 - 0.2 - - - - - - -
15/12:00am 27.6 W 2 5 1009.8 - 0.2 - - - - - - -
 
Date/Time
EST
Temp

°C
Wind Pressure Rain
since 9am
mm
Weather Cloud Vis
km
Sea
Height
m
Swell
Dir
 
Speed
knots
Gust
knots
hPa Trend Height
m
Period
s
Dir
14/11:30pm 27.4 WNW 2 4 1010.1 - 0.2 - - - - - - -
14/11:00pm 27.6 W 2 4 1010.1 - 0.2 - - - - - - -

Other Formats:

Comma delimited format used in spreadsheet applications
http://www.bom.gov.au/fwo/IDQ60701/IDQ60701.94182.axf

JavaScript Object Notation format (JSON) in row-major order
http://www.bom.gov.au/fwo/IDQ60701/IDQ60701.94182.json